Time;durP1;ratioP1;P1;durP2;ratioP2;P2;SDS_P1;SDS_P2;PMS_P1;PMS_P2;Temp;Humidity;BMP_temperature;BMP_pressure;BME280_temperature;BME280_humidity;BME280_pressure;Samples;Min_cycle;Max_cycle;Signal;HPM_P1;HPM_P2
2023/08/03 00:01:51;;;;;;;0.10;0.10;;;;;;;24.22;68.82;98840.91;5031650;28;20393;-69
2023/08/03 00:04:16;;;;;;;0.00;0.00;;;;;;;24.53;67.55;98837.16;5032068;28;20021;-70
2023/08/03 00:06:42;;;;;;;0.10;0.10;;;;;;;24.82;66.71;98846.72;5031681;28;20033;-69
2023/08/03 00:09:07;;;;;;;0.10;0.10;;;;;;;24.47;66.55;98835.84;5031459;28;20052;-70
2023/08/03 00:11:33;;;;;;;0.05;0.05;;;;;;;24.28;68.88;98833.16;5031316;28;20028;-69
2023/08/03 00:13:58;;;;;;;0.10;0.10;;;;;;;24.32;68.75;98836.78;5031606;28;20030;-69
2023/08/03 00:16:23;;;;;;;0.10;0.10;;;;;;;24.74;67.28;98834.00;5031918;28;20032;-69
2023/08/03 00:18:49;;;;;;;0.10;0.10;;;;;;;23.45;71.50;98829.13;5031563;28;20033;-70
2023/08/03 00:21:14;;;;;;;0.10;0.10;;;;;;;23.98;70.56;98830.22;5031577;28;20052;-69
2023/08/03 00:23:39;;;;;;;0.10;0.10;;;;;;;23.65;71.46;98818.97;5031370;28;20504;-69
2023/08/03 00:26:05;;;;;;;0.10;0.10;;;;;;;24.31;69.49;98826.97;5012495;28;20025;-70
2023/08/03 00:28:30;;;;;;;0.08;0.08;;;;;;;24.63;67.12;98824.78;5031557;28;20018;-69
2023/08/03 00:30:56;;;;;;;0.00;0.00;;;;;;;24.68;66.41;98829.97;5030993;28;21009;-71
2023/08/03 00:33:21;;;;;;;0.10;0.10;;;;;;;25.01;66.05;98821.88;5025800;28;20532;-69
2023/08/03 00:35:47;;;;;;;0.10;0.10;;;;;;;24.66;66.96;98816.59;5030676;28;20758;-69
2023/08/03 00:38:12;;;;;;;0.10;0.10;;;;;;;24.34;68.02;98817.97;5031503;28;20029;-69
2023/08/03 00:40:37;;;;;;;0.10;0.10;;;;;;;24.85;66.60;98810.25;5031707;28;20488;-69
2023/08/03 00:43:04;;;;;;;0.10;0.10;;;;;;;25.00;66.44;98817.56;5031711;28;20083;-70
2023/08/03 00:45:29;;;;;;;0.10;0.10;;;;;;;24.69;67.07;98818.59;5031411;28;20042;-70
2023/08/03 00:47:55;;;;;;;0.17;0.17;;;;;;;24.64;67.46;98820.88;5030931;28;20026;-69
2023/08/03 00:50:20;;;;;;;0.00;0.00;;;;;;;24.38;68.07;98819.66;5031455;28;20481;-69
2023/08/03 00:52:46;;;;;;;0.00;0.00;;;;;;;24.35;68.92;98830.56;5031508;28;20504;-68
2023/08/03 00:55:11;;;;;;;0.10;0.10;;;;;;;23.61;71.46;98831.00;5031898;28;20747;-68
2023/08/03 00:57:37;;;;;;;0.10;0.10;;;;;;;23.82;70.64;98843.22;5031044;28;20413;-68
2023/08/03 01:00:02;;;;;;;0.10;0.10;;;;;;;23.85;69.48;98842.50;5030866;28;20044;-69
2023/08/03 01:02:28;;;;;;;0.10;0.10;;;;;;;24.39;68.56;98834.94;5031300;28;20122;-69
2023/08/03 01:04:53;;;;;;;0.10;0.10;;;;;;;24.26;68.91;98843.72;5031369;28;21719;-71
2023/08/03 01:07:21;;;;;;;0.10;0.10;;;;;;;23.26;73.19;98859.22;5031464;28;20021;-71
2023/08/03 01:09:47;;;;;;;0.00;0.00;;;;;;;23.55;72.50;98853.22;5031350;28;20096;-70
2023/08/03 01:12:12;;;;;;;0.10;0.10;;;;;;;23.53;72.49;98849.25;5027551;28;20045;-69
2023/08/03 01:14:37;;;;;;;0.10;0.10;;;;;;;24.32;68.72;98859.53;5030777;28;20509;-69
2023/08/03 01:17:03;;;;;;;0.00;0.00;;;;;;;23.48;71.75;98869.53;5031102;28;20037;-69
2023/08/03 01:19:29;;;;;;;0.10;0.10;;;;;;;23.48;71.86;98866.00;5031593;28;20030;-69
2023/08/03 01:21:56;;;;;;;0.10;0.10;;;;;;;22.57;77.17;98870.81;5030700;28;20037;-69
2023/08/03 01:24:21;;;;;;;0.10;0.10;;;;;;;23.14;75.26;98872.22;5031133;28;20045;-69
2023/08/03 01:26:47;;;;;;;0.10;0.10;;;;;;;22.36;77.96;98878.44;5031233;28;20034;-70
2023/08/03 01:29:12;;;;;;;0.10;0.10;;;;;;;23.27;73.98;98879.19;5031169;28;20033;-69
2023/08/03 01:31:40;;;;;;;0.10;0.10;;;;;;;23.27;74.47;98879.97;5030800;28;20029;-69
2023/08/03 01:34:05;;;;;;;0.10;0.10;;;;;;;22.55;77.53;98889.50;5029496;28;20434;-70
2023/08/03 01:36:31;;;;;;;0.10;0.10;;;;;;;22.90;76.38;98892.38;5030533;28;20095;-70
2023/08/03 01:39:07;;;;;;;0.10;0.10;;;;;;;23.07;76.11;98886.56;5030791;28;20648;-69
2023/08/03 01:41:35;;;;;;;0.10;0.10;;;;;;;22.97;76.26;98889.84;5030516;28;20078;-68
2023/08/03 01:44:33;;;;;;;0.10;0.10;;;;;;;23.04;76.28;98895.47;5030417;28;20394;-70
2023/08/03 01:46:59;;;;;;;0.10;0.10;;;;;;;23.06;75.79;98898.66;4969533;28;20049;-69
2023/08/03 01:49:27;;;;;;;0.10;0.10;;;;;;;21.88;81.70;98897.00;4966607;28;20046;-70
2023/08/03 01:51:52;;;;;;;0.10;0.10;;;;;;;23.10;77.13;98901.47;4931887;29;20103;-68
2023/08/03 01:54:17;;;;;;;0.10;0.10;;;;;;;22.98;77.32;98899.63;4944632;29;20083;-68
2023/08/03 01:56:43;;;;;;;0.10;0.10;;;;;;;23.24;76.50;98913.59;4949656;29;20499;-69
2023/08/03 01:59:08;;;;;;;0.10;0.10;;;;;;;22.92;76.94;98909.25;4945745;28;20043;-69
2023/08/03 02:01:34;;;;;;;0.10;0.10;;;;;;;23.32;75.58;98903.63;4950158;29;20035;-69
2023/08/03 02:03:59;;;;;;;0.10;0.10;;;;;;;23.21;76.22;98916.25;4949942;29;20062;-68
2023/08/03 02:06:25;;;;;;;0.10;0.10;;;;;;;23.01;76.40;98929.06;4949843;29;20043;-71
2023/08/03 02:08:50;;;;;;;0.10;0.10;;;;;;;23.01;76.49;98923.59;4949931;29;20118;-68
2023/08/03 02:11:16;;;;;;;0.10;0.10;;;;;;;23.48;74.42;98921.63;4949755;29;20424;-69
2023/08/03 02:13:41;;;;;;;0.10;0.10;;;;;;;23.75;73.42;98930.06;4949896;29;20035;-68
2023/08/03 02:16:11;;;;;;;0.10;0.10;;;;;;;23.23;76.44;98928.44;4949946;29;20043;-68
2023/08/03 02:18:38;;;;;;;0.10;0.10;;;;;;;23.78;73.63;98932.91;4949472;29;20042;-70
2023/08/03 02:21:04;;;;;;;0.00;0.00;;;;;;;22.50;78.58;98932.78;4949721;29;20047;-68
2023/08/03 02:23:29;;;;;;;0.10;0.10;;;;;;;23.24;75.90;98938.25;5020379;28;20079;-69
2023/08/03 02:25:55;;;;;;;0.10;0.10;;;;;;;23.25;75.86;98952.75;5030153;28;20037;-71
2023/08/03 02:28:20;;;;;;;0.10;0.10;;;;;;;23.36;76.16;98954.63;5030796;28;20026;-70
2023/08/03 02:30:45;;;;;;;0.10;0.10;;;;;;;22.68;78.90;98950.53;5030211;28;20038;-69
2023/08/03 02:33:11;;;;;;;0.05;0.05;;;;;;;22.87;77.30;98963.53;5030042;28;20689;-69
2023/08/03 02:35:39;;;;;;;0.10;0.10;;;;;;;23.66;75.04;98968.66;5033383;28;20053;-68
2023/08/03 02:38:04;;;;;;;0.10;0.10;;;;;;;23.06;77.05;98969.91;5033983;28;20063;-69
2023/08/03 02:40:30;;;;;;;0.00;0.00;;;;;;;22.70;79.30;98968.16;5034536;28;20111;-68
2023/08/03 02:42:55;;;;;;;0.08;0.08;;;;;;;23.44;76.36;98978.34;5033774;28;20512;-69
2023/08/03 02:45:21;;;;;;;0.10;0.10;;;;;;;23.26;77.11;98981.75;5033360;28;20033;-67
2023/08/03 02:47:46;;;;;;;0.10;0.10;;;;;;;23.77;74.23;98977.94;5033718;28;20033;-68
2023/08/03 02:50:11;;;;;;;0.08;0.08;;;;;;;23.33;74.93;98987.47;5033817;28;20559;-69
2023/08/03 02:52:37;;;;;;;0.10;0.10;;;;;;;23.47;75.70;98990.53;5033918;28;20397;-68
2023/08/03 02:55:02;;;;;;;0.10;0.10;;;;;;;23.79;74.36;99000.31;5034144;28;20025;-68
2023/08/03 02:57:28;;;;;;;0.00;0.00;;;;;;;23.58;75.26;98999.81;5033693;28;20045;-67
2023/08/03 02:59:53;;;;;;;0.00;0.00;;;;;;;23.81;74.90;98997.19;5033478;28;20037;-68
2023/08/03 03:02:19;;;;;;;0.03;0.03;;;;;;;23.35;76.47;99009.84;5033569;28;20029;-68
2023/08/03 03:04:44;;;;;;;0.10;0.10;;;;;;;23.25;77.66;99018.56;5033481;28;20049;-68
2023/08/03 03:07:09;;;;;;;0.10;0.10;;;;;;;23.49;74.98;99018.38;5032155;28;20028;-69
2023/08/03 03:09:35;;;;;;;0.10;0.10;;;;;;;23.30;75.88;99015.53;5033404;28;20033;-68
2023/08/03 03:12:00;;;;;;;0.00;0.00;;;;;;;23.17;77.40;99027.72;5033016;28;20033;-68
2023/08/03 03:14:25;;;;;;;0.00;0.00;;;;;;;23.77;74.38;99029.25;5032874;28;20528;-69
2023/08/03 03:16:51;;;;;;;0.10;0.10;;;;;;;23.60;74.92;99024.13;5033117;28;20033;-69
2023/08/03 03:19:16;;;;;;;0.10;0.10;;;;;;;24.05;72.96;99029.94;5033263;28;20022;-69
2023/08/03 03:21:42;;;;;;;0.10;0.10;;;;;;;24.28;71.76;99039.06;5033141;28;20038;-69
2023/08/03 03:24:07;;;;;;;0.00;0.00;;;;;;;23.85;74.15;99047.47;5033262;28;20029;-69
2023/08/03 03:26:32;;;;;;;0.10;0.10;;;;;;;24.03;73.76;99049.50;5033202;28;20021;-70
2023/08/03 03:28:58;;;;;;;0.00;0.00;;;;;;;23.71;74.39;99045.19;5032953;28;20473;-68
2023/08/03 03:31:23;;;;;;;0.00;0.00;;;;;;;23.93;73.83;99050.03;5014870;28;20091;-69
2023/08/03 03:33:48;;;;;;;0.10;0.10;;;;;;;23.82;73.94;99057.19;5032872;28;20040;-68
2023/08/03 03:36:14;;;;;;;0.10;0.10;;;;;;;23.61;75.62;99056.69;5014221;28;20054;-69
2023/08/03 03:38:39;;;;;;;0.10;0.10;;;;;;;24.24;72.48;99063.72;5032439;28;20034;-69
2023/08/03 03:41:04;;;;;;;0.10;0.10;;;;;;;23.76;74.51;99057.84;5032791;28;20030;-70
2023/08/03 03:43:30;;;;;;;0.10;0.10;;;;;;;23.92;73.73;99064.13;5032765;28;20087;-69
2023/08/03 03:45:55;;;;;;;0.10;0.10;;;;;;;24.12;72.91;99066.56;5031883;28;20497;-68
2023/08/03 03:48:21;;;;;;;0.00;0.00;;;;;;;23.22;76.40;99066.63;5014366;28;20083;-68
2023/08/03 03:50:46;;;;;;;0.10;0.10;;;;;;;23.65;74.24;99075.97;5032516;28;20033;-68
2023/08/03 03:53:11;;;;;;;0.10;0.10;;;;;;;23.62;74.83;99074.75;5032027;28;20037;-68
2023/08/03 03:55:37;;;;;;;0.10;0.10;;;;;;;23.27;75.23;99080.06;5031917;28;20021;-69
2023/08/03 03:58:02;;;;;;;0.00;0.00;;;;;;;23.61;75.00;99086.06;5032336;28;20022;-68
2023/08/03 04:00:28;;;;;;;0.00;0.00;;;;;;;23.82;74.13;99081.88;5031829;28;20484;-68
2023/08/03 04:02:54;;;;;;;0.10;0.10;;;;;;;23.83;73.11;99085.44;5029141;28;20114;-68
2023/08/03 04:05:19;;;;;;;0.10;0.10;;;;;;;23.64;73.29;99093.59;5035058;28;20040;-68
2023/08/03 04:07:44;;;;;;;0.13;0.13;;;;;;;23.96;72.26;99095.94;5030673;28;20032;-70
2023/08/03 04:10:10;;;;;;;0.00;0.00;;;;;;;24.53;69.79;99094.56;5038464;28;20021;-68
2023/08/03 04:12:35;;;;;;;0.00;0.00;;;;;;;23.55;73.16;99104.72;5043874;28;20616;-69
2023/08/03 04:15:00;;;;;;;0.10;0.10;;;;;;;23.89;72.13;99103.22;5049839;28;20053;-69
2023/08/03 04:17:26;;;;;;;0.00;0.00;;;;;;;23.33;74.06;99095.16;5030360;28;20037;-68
2023/08/03 04:19:51;;;;;;;0.10;0.10;;;;;;;24.24;70.67;99106.84;5030817;28;20481;-69
2023/08/03 04:22:17;;;;;;;0.10;0.10;;;;;;;23.50;73.50;99107.75;5031405;28;20021;-69
2023/08/03 04:24:42;;;;;;;0.05;0.05;;;;;;;24.01;70.55;99100.38;5031163;28;20037;-69
2023/08/03 04:27:07;;;;;;;0.10;0.10;;;;;;;23.95;71.24;99107.28;5030788;28;20029;-69
2023/08/03 04:29:33;;;;;;;0.10;0.10;;;;;;;24.32;69.77;99111.34;5030821;28;20026;-69
2023/08/03 04:31:58;;;;;;;0.10;0.10;;;;;;;23.62;72.49;99107.66;5030586;28;20103;-69
2023/08/03 04:34:23;;;;;;;0.15;0.15;;;;;;;23.63;72.46;99103.75;5017529;28;20799;-69
2023/08/03 04:36:49;;;;;;;0.10;0.10;;;;;;;23.81;72.01;99106.94;5011086;28;20113;-69
2023/08/03 04:39:14;;;;;;;0.10;0.10;;;;;;;23.96;71.17;99104.19;5022856;28;20045;-68
2023/08/03 04:41:40;;;;;;;0.00;0.00;;;;;;;24.10;70.44;99114.72;5031660;28;20033;-68
2023/08/03 04:44:05;;;;;;;0.00;0.00;;;;;;;24.24;70.53;99121.38;5031420;28;20504;-68
2023/08/03 04:46:30;;;;;;;0.00;0.00;;;;;;;23.93;71.19;99117.81;5013671;28;20045;-69
2023/08/03 04:48:56;;;;;;;0.00;0.00;;;;;;;24.10;70.50;99126.50;5031588;28;20037;-68
2023/08/03 04:51:21;;;;;;;0.03;0.03;;;;;;;24.26;70.59;99131.97;5031467;28;20393;-68
2023/08/03 04:53:47;;;;;;;0.10;0.10;;;;;;;24.71;68.16;99140.47;5031419;28;20390;-70
2023/08/03 04:56:12;;;;;;;0.10;0.10;;;;;;;24.56;69.48;99141.31;5030558;28;20038;-70
2023/08/03 04:58:37;;;;;;;0.10;0.10;;;;;;;24.80;69.09;99141.09;5031052;28;20032;-68
2023/08/03 05:01:03;;;;;;;0.00;0.00;;;;;;;24.32;69.99;99144.28;5029820;28;20024;-68
2023/08/03 05:03:28;;;;;;;0.10;0.10;;;;;;;24.89;67.97;99149.13;5030567;28;20485;-69
2023/08/03 05:05:53;;;;;;;0.00;0.00;;;;;;;24.85;69.06;99145.50;5030875;28;20045;-69
2023/08/03 05:08:22;;;;;;;0.00;0.00;;;;;;;24.26;69.17;99145.72;5024293;28;20053;-69
2023/08/03 05:10:48;;;;;;;0.10;0.10;;;;;;;23.64;72.31;99154.72;5010718;28;20470;-68
2023/08/03 05:13:13;;;;;;;0.10;0.10;;;;;;;24.37;70.49;99157.75;5011031;28;20102;-71
2023/08/03 05:15:39;;;;;;;0.00;0.00;;;;;;;24.65;69.61;99163.88;5009477;28;20653;-69
2023/08/03 05:18:04;;;;;;;0.00;0.00;;;;;;;24.24;71.51;99173.53;5010278;28;20038;-68
2023/08/03 05:20:30;;;;;;;0.10;0.10;;;;;;;24.28;70.40;99184.59;5010431;28;20038;-70
2023/08/03 05:22:55;;;;;;;0.05;0.05;;;;;;;24.84;69.14;99185.13;5009769;28;20457;-70
2023/08/03 05:25:21;;;;;;;0.10;0.10;;;;;;;24.90;68.02;99181.72;5011029;28;20091;-70
2023/08/03 05:27:46;;;;;;;0.00;0.00;;;;;;;25.22;67.25;99191.44;5010708;28;20049;-71
2023/08/03 05:30:12;;;;;;;0.00;0.00;;;;;;;25.20;67.84;99190.22;5009511;28;20048;-69
2023/08/03 05:32:37;;;;;;;0.10;0.10;;;;;;;24.51;69.34;99196.50;5019164;28;20065;-69
2023/08/03 05:35:03;;;;;;;0.10;0.10;;;;;;;24.99;68.53;99198.81;5010656;28;20093;-70
2023/08/03 05:37:28;;;;;;;0.08;0.08;;;;;;;24.32;71.56;99199.19;5010928;28;20021;-68
2023/08/03 05:39:54;;;;;;;0.10;0.10;;;;;;;25.09;68.50;99194.69;5043656;28;20037;-68
2023/08/03 05:42:19;;;;;;;0.00;0.00;;;;;;;24.65;69.96;99198.81;5038795;28;20029;-68
2023/08/03 05:44:45;;;;;;;0.00;0.00;;;;;;;24.62;69.56;99207.75;5034099;28;20127;-68
2023/08/03 05:47:11;;;;;;;0.08;0.08;;;;;;;24.74;71.35;99204.94;5030145;28;20056;-68
2023/08/03 05:49:37;;;;;;;0.08;0.08;;;;;;;25.83;66.86;99207.97;5037501;28;20053;-68
2023/08/03 05:52:03;;;;;;;0.00;0.00;;;;;;;25.12;69.24;99214.00;5039877;28;20026;-69
2023/08/03 05:54:28;;;;;;;0.00;0.00;;;;;;;25.56;68.27;99224.75;5044228;28;20033;-69
2023/08/03 05:56:54;;;;;;;0.00;0.00;;;;;;;24.41;72.17;99221.78;5015211;28;20125;-68
2023/08/03 05:59:22;;;;;;;0.00;0.00;;;;;;;25.00;69.95;99219.63;5030159;28;20041;-69
2023/08/03 06:01:49;;;;;;;0.00;0.00;;;;;;;25.08;68.85;99234.34;5030279;28;20466;-68
2023/08/03 06:04:18;;;;;;;0.03;0.03;;;;;;;25.26;68.39;99225.31;5031064;28;20021;-69
2023/08/03 06:06:45;;;;;;;0.00;0.00;;;;;;;25.12;68.74;99238.75;5012480;28;20033;-70
2023/08/03 06:09:12;;;;;;;0.03;0.03;;;;;;;25.17;68.53;99234.94;5034300;28;20096;-70
2023/08/03 06:11:38;;;;;;;0.00;0.00;;;;;;;24.93;69.55;99246.97;5034708;28;20045;-69
2023/08/03 06:14:15;;;;;;;0.08;0.08;;;;;;;24.15;72.62;99251.72;5034252;28;20107;-69
2023/08/03 06:16:44;;;;;;;0.00;0.00;;;;;;;24.68;70.90;99251.09;5001147;28;20041;-70
2023/08/03 06:19:10;;;;;;;0.10;0.10;;;;;;;25.09;69.55;99252.44;5034549;28;20030;-70
2023/08/03 06:21:36;;;;;;;0.00;0.00;;;;;;;24.51;71.18;99253.41;5034099;28;20497;-70
2023/08/03 06:24:01;;;;;;;0.00;0.00;;;;;;;25.26;68.89;99260.25;5033948;28;20099;-70
2023/08/03 06:26:30;;;;;;;0.00;0.00;;;;;;;24.38;71.48;99264.50;5033715;28;20037;-70
2023/08/03 06:28:56;;;;;;;0.00;0.00;;;;;;;24.77;70.50;99272.88;5033956;28;20401;-70
2023/08/03 06:31:35;;;;;;;0.00;0.00;;;;;;;25.16;69.30;99277.31;5033847;28;20045;-69
2023/08/03 06:34:02;;;;;;;0.00;0.00;;;;;;;24.82;70.74;99286.38;5033747;28;20052;-70
2023/08/03 06:36:28;;;;;;;0.10;0.10;;;;;;;25.11;68.89;99280.38;5033467;28;20073;-68
2023/08/03 06:38:54;;;;;;;0.00;0.00;;;;;;;25.19;68.74;99282.91;5033776;28;20056;-69
2023/08/03 06:41:20;;;;;;;0.00;0.00;;;;;;;24.16;71.84;99289.81;5033956;28;20034;-69
2023/08/03 06:43:46;;;;;;;0.00;0.00;;;;;;;25.58;67.56;99293.97;5033150;28;20415;-69
2023/08/03 06:46:12;;;;;;;0.00;0.00;;;;;;;24.69;70.12;99290.31;5033983;28;20041;-71
2023/08/03 06:48:37;;;;;;;0.00;0.00;;;;;;;25.70;66.84;99294.63;5033321;28;20117;-69
2023/08/03 06:51:03;;;;;;;0.00;0.00;;;;;;;24.62;70.35;99304.72;5033266;28;20030;-72
2023/08/03 06:53:30;;;;;;;0.10;0.10;;;;;;;24.55;71.14;99298.25;5033346;28;20033;-71
2023/08/03 06:55:55;;;;;;;0.03;0.03;;;;;;;25.51;67.39;99307.59;5033473;28;20481;-69
2023/08/03 06:58:21;;;;;;;0.00;0.00;;;;;;;26.46;63.52;99313.00;5033838;28;20037;-69
2023/08/03 07:00:47;;;;;;;0.00;0.00;;;;;;;27.09;61.62;99315.19;5033232;28;20071;-69
2023/08/03 07:03:12;;;;;;;0.00;0.00;;;;;;;26.35;64.35;99319.47;5033223;28;20634;-69
2023/08/03 07:05:39;;;;;;;0.00;0.00;;;;;;;25.63;65.34;99326.72;5033473;28;20057;-70
2023/08/03 07:08:04;;;;;;;0.00;0.00;;;;;;;24.87;69.46;99339.09;5033129;28;20029;-69
2023/08/03 07:10:30;;;;;;;0.00;0.00;;;;;;;25.97;66.48;99342.34;5033629;28;20492;-70
2023/08/03 07:12:55;;;;;;;0.00;0.00;;;;;;;26.29;64.08;99340.22;5033334;28;20048;-69
2023/08/03 07:15:20;;;;;;;0.00;0.00;;;;;;;25.87;66.14;99346.47;5033036;28;20040;-69
2023/08/03 07:17:46;;;;;;;0.00;0.00;;;;;;;25.90;65.93;99353.22;5032971;28;20045;-70
2023/08/03 07:20:12;;;;;;;0.00;0.00;;;;;;;25.72;66.61;99355.59;5032173;28;20468;-70
2023/08/03 07:22:37;;;;;;;0.00;0.00;;;;;;;26.23;64.80;99359.00;5042475;28;20172;-71
2023/08/03 07:25:03;;;;;;;0.00;0.00;;;;;;;26.44;63.20;99361.34;5053266;28;20536;-71
2023/08/03 07:27:29;;;;;;;0.00;0.00;;;;;;;27.01;61.76;99363.16;5045125;28;20026;-70
2023/08/03 07:29:54;;;;;;;0.00;0.00;;;;;;;26.97;61.13;99368.59;5032876;28;20036;-70
2023/08/03 07:32:20;;;;;;;0.00;0.00;;;;;;;26.05;64.19;99380.66;5032782;28;20409;-71
2023/08/03 07:34:45;;;;;;;0.00;0.00;;;;;;;26.76;63.17;99382.84;5032680;28;20033;-71
2023/08/03 07:37:11;;;;;;;0.00;0.00;;;;;;;27.58;60.12;99376.63;5033040;28;20037;-70
2023/08/03 07:39:36;;;;;;;0.10;0.10;;;;;;;27.89;58.88;99381.00;5032419;28;20049;-70
2023/08/03 07:42:01;;;;;;;0.00;0.00;;;;;;;26.98;62.05;99391.47;5032587;28;20042;-71
2023/08/03 07:44:27;;;;;;;0.00;0.00;;;;;;;26.60;63.26;99400.63;5032565;28;20045;-70
2023/08/03 07:46:52;;;;;;;0.00;0.00;;;;;;;25.87;66.02;99406.22;5032692;28;20025;-71
2023/08/03 07:49:18;;;;;;;0.00;0.00;;;;;;;26.22;63.18;99406.97;5032823;28;20029;-71
2023/08/03 07:51:48;;;;;;;0.00;0.00;;;;;;;27.02;62.80;99408.88;5032732;28;20050;-71
2023/08/03 07:54:13;;;;;;;0.00;0.00;;;;;;;27.17;60.83;99405.97;5015024;28;20052;-71
2023/08/03 07:56:39;;;;;;;0.00;0.00;;;;;;;26.79;61.20;99420.69;5032658;28;20057;-71
2023/08/03 07:59:05;;;;;;;0.00;0.00;;;;;;;26.82;61.59;99417.22;5032659;28;20037;-71
2023/08/03 08:01:30;;;;;;;0.00;0.00;;;;;;;27.03;61.86;99422.28;5033011;28;20029;-71
2023/08/03 08:03:56;;;;;;;0.00;0.00;;;;;;;26.84;62.22;99425.91;5032262;28;20047;-71
2023/08/03 08:06:21;;;;;;;0.00;0.00;;;;;;;26.77;63.34;99430.50;5032266;28;20623;-71
2023/08/03 08:08:48;;;;;;;0.00;0.00;;;;;;;26.59;61.96;99435.66;5032364;28;20037;-71
2023/08/03 08:11:15;;;;;;;0.00;0.00;;;;;;;26.97;61.70;99431.25;5031967;28;20021;-71
2023/08/03 08:13:42;;;;;;;0.00;0.00;;;;;;;26.40;61.61;99445.91;5032150;28;20036;-71
2023/08/03 08:16:10;;;;;;;0.00;0.00;;;;;;;26.25;64.64;99453.09;5014629;28;20120;-70
2023/08/03 08:18:35;;;;;;;0.00;0.00;;;;;;;26.12;63.64;99462.66;5031753;28;20083;-70
2023/08/03 08:21:06;;;;;;;0.00;0.00;;;;;;;26.07;64.12;99458.25;5032015;28;20033;-71
2023/08/03 08:23:31;;;;;;;;;;;;;;;26.98;62.02;99472.25;5032539;28;20033;-71
2023/08/03 08:25:58;;;;;;;0.00;0.00;;;;;;;26.07;64.84;99469.25;5031699;28;20380;-71
2023/08/03 08:28:24;;;;;;;0.00;0.00;;;;;;;25.96;65.68;99478.41;5025795;28;20478;-70
2023/08/03 08:30:49;;;;;;;0.10;0.10;;;;;;;25.70;66.04;99484.50;5012001;28;20041;-71
2023/08/03 08:33:16;;;;;;;0.00;0.00;;;;;;;26.04;65.20;99493.94;5011746;28;20360;-70
2023/08/03 08:35:42;;;;;;;0.00;0.00;;;;;;;25.63;66.99;99489.84;5009767;28;20104;-70
2023/08/03 08:38:12;;;;;;;0.00;0.00;;;;;;;26.56;64.23;99494.25;5011864;28;20030;-71
2023/08/03 08:40:38;;;;;;;0.00;0.00;;;;;;;26.53;64.86;99486.72;5020129;28;20045;-69
2023/08/03 08:43:05;;;;;;;0.00;0.00;;;;;;;27.33;63.25;99500.47;5030939;28;20022;-71
2023/08/03 08:45:30;;;;;;;0.00;0.00;;;;;;;26.51;63.82;99497.31;5030848;28;20037;-71
2023/08/03 08:47:56;;;;;;;0.00;0.00;;;;;;;26.77;63.86;99510.47;5030732;28;20026;-71
2023/08/03 08:50:21;;;;;;;0.00;0.00;;;;;;;27.41;61.11;99504.94;5031133;28;20624;-72
2023/08/03 08:52:49;;;;;;;0.00;0.00;;;;;;;26.93;63.58;99509.19;5030644;28;20062;-70
2023/08/03 08:55:15;;;;;;;0.00;0.00;;;;;;;26.26;65.43;99520.78;5031241;28;20036;-70
2023/08/03 08:57:41;;;;;;;0.00;0.00;;;;;;;27.08;62.75;99517.72;5030753;28;20044;-69
2023/08/03 09:00:07;;;;;;;0.00;0.00;;;;;;;27.53;60.90;99524.06;5030800;28;20397;-70
2023/08/03 09:02:34;;;;;;;0.00;0.00;;;;;;;26.97;61.19;99538.78;5030105;28;20125;-70
2023/08/03 09:05:23;;;;;;;0.00;0.00;;;;;;;28.06;59.04;99540.66;5030314;28;20045;-70
2023/08/03 09:08:14;;;;;;;0.00;0.00;;;;;;;27.49;59.22;99547.22;5026613;28;20033;-71
2023/08/03 09:10:55;;;;;;;0.00;0.00;;;;;;;27.25;60.23;99553.88;5028280;28;20381;-70
2023/08/03 09:13:34;;;;;;;0.00;0.00;;;;;;;27.31;58.63;99559.91;5028489;28;20017;-71
2023/08/03 09:16:00;;;;;;;0.00;0.00;;;;;;;26.59;60.34;99564.41;5032592;28;20037;-70
2023/08/03 09:18:27;;;;;;;0.00;0.00;;;;;;;25.96;63.42;99561.78;5023341;28;20677;-70
2023/08/03 09:21:11;;;;;;;0.00;0.00;;;;;;;27.07;59.74;99574.03;5018946;28;20081;-70
2023/08/03 09:23:36;;;;;;;0.00;0.00;;;;;;;27.81;59.31;99570.66;5015931;28;20061;-69
2023/08/03 09:26:05;;;;;;;0.00;0.00;;;;;;;26.72;60.53;99574.94;5014539;28;20029;-71
2023/08/03 09:28:38;;;;;;;0.00;0.00;;;;;;;26.45;58.30;99580.63;5030681;28;20029;-72
2023/08/03 09:31:05;;;;;;;0.00;0.00;;;;;;;25.98;59.37;99580.72;5030595;28;20034;-71
2023/08/03 09:33:31;;;;;;;0.10;0.10;;;;;;;27.44;55.81;99589.72;5030026;28;20093;-72
2023/08/03 09:36:08;;;;;;;0.00;0.00;;;;;;;27.84;56.61;99591.97;5021865;28;20529;-71
2023/08/03 09:38:34;;;;;;;0.00;0.00;;;;;;;27.98;55.78;99594.19;5004606;28;20045;-72
2023/08/03 09:40:59;;;;;;;0.00;0.00;;;;;;;27.38;57.94;99606.97;5005373;28;20057;-72
2023/08/03 09:43:26;;;;;;;0.00;0.00;;;;;;;27.77;55.43;99613.97;5010533;28;20014;-70
2023/08/03 09:45:53;;;;;;;0.00;0.00;;;;;;;26.90;56.42;99617.47;5010050;28;20038;-71
2023/08/03 09:48:19;;;;;;;0.00;0.00;;;;;;;27.01;56.23;99625.16;5010355;28;20397;-71
2023/08/03 09:50:51;;;;;;;0.00;0.00;;;;;;;27.15;56.81;99626.22;5009531;28;20057;-73
2023/08/03 09:53:20;;;;;;;0.00;0.00;;;;;;;26.28;56.77;99627.88;5009288;28;20549;-70
2023/08/03 09:56:02;;;;;;;0.00;0.00;;;;;;;27.15;55.18;99626.22;5009497;28;20425;-73
2023/08/03 09:58:39;;;;;;;0.00;0.00;;;;;;;28.45;53.21;99636.78;4991531;28;20088;-74
2023/08/03 10:01:09;;;;;;;0.00;0.00;;;;;;;28.26;52.28;99642.41;4989694;28;20038;-73
2023/08/03 10:03:38;;;;;;;0.00;0.00;;;;;;;27.67;54.52;99654.03;4972959;28;20034;-72
2023/08/03 10:06:11;;;;;;;0.00;0.00;;;;;;;27.95;52.90;99652.97;4989792;28;20038;-73
2023/08/03 10:08:50;;;;;;;0.00;0.00;;;;;;;27.81;52.56;99651.50;4990303;28;20063;-71
2023/08/03 10:11:16;;;;;;;0.00;0.00;;;;;;;27.62;53.65;99659.03;4997635;28;20117;-74
2023/08/03 10:13:46;;;;;;;0.00;0.00;;;;;;;27.40;53.88;99665.34;5009616;28;20189;-71
2023/08/03 10:16:15;;;;;;;0.00;0.00;;;;;;;27.03;55.97;99661.44;5009962;28;20029;-71
2023/08/03 10:18:42;;;;;;;0.00;0.00;;;;;;;27.92;54.98;99664.69;5009263;28;20042;-73
2023/08/03 10:21:09;;;;;;;0.00;0.00;;;;;;;27.57;55.43;99676.72;5009085;28;20030;-69
2023/08/03 10:23:38;;;;;;;0.00;0.00;;;;;;;27.84;53.92;99674.84;5008907;28;20038;-71
2023/08/03 10:26:04;;;;;;;0.00;0.00;;;;;;;28.29;53.09;99683.09;5009435;28;20633;-72
2023/08/03 10:28:38;;;;;;;0.00;0.00;;;;;;;28.18;53.48;99689.63;5009856;28;20042;-70
2023/08/03 10:31:04;;;;;;;0.00;0.00;;;;;;;28.29;53.12;99696.13;4991532;28;20049;-74
2023/08/03 10:33:49;;;;;;;0.00;0.00;;;;;;;29.11;51.34;99693.38;5008887;28;20161;-74
2023/08/03 10:36:27;;;;;;;0.00;0.00;;;;;;;28.77;52.76;99700.84;5019526;28;20050;-73
2023/08/03 10:39:14;;;;;;;0.00;0.00;;;;;;;28.91;51.74;99701.03;5027305;28;20517;-73
2023/08/03 10:41:49;;;;;;;0.00;0.00;;;;;;;27.90;53.33;99705.69;5027931;28;20033;-73
2023/08/03 10:44:14;;;;;;;0.00;0.00;;;;;;;28.67;51.78;99707.03;5028557;28;20037;-71
2023/08/03 10:46:42;;;;;;;0.00;0.00;;;;;;;28.18;53.17;99714.50;5028517;28;20145;-72
2023/08/03 10:49:23;;;;;;;0.00;0.00;;;;;;;26.84;56.27;99715.41;5028805;28;20100;-72
2023/08/03 10:52:10;;;;;;;0.00;0.00;;;;;;;26.98;54.83;99716.88;5028202;28;20076;-73
2023/08/03 10:54:36;;;;;;;0.00;0.00;;;;;;;27.45;53.93;99718.28;5025929;28;20116;-73
2023/08/03 10:57:02;;;;;;;0.00;0.00;;;;;;;27.24;54.86;99719.78;5032143;28;20045;-71
2023/08/03 10:59:28;;;;;;;0.00;0.00;;;;;;;27.93;54.62;99722.31;5032139;28;20112;-72
2023/08/03 11:01:53;;;;;;;0.00;0.00;;;;;;;27.90;54.02;99719.50;5032451;28;20025;-73
2023/08/03 11:04:24;;;;;;;0.00;0.00;;;;;;;27.71;54.70;99734.16;5032703;28;20140;-73
2023/08/03 11:06:51;;;;;;;0.00;0.00;;;;;;;26.96;56.56;99739.28;5032000;28;20520;-73
2023/08/03 11:09:16;;;;;;;0.00;0.00;;;;;;;26.75;59.87;99747.88;5031777;28;20029;-72
2023/08/03 11:11:44;;;;;;;0.00;0.00;;;;;;;26.33;63.66;99752.34;5031801;28;20046;-70
2023/08/03 11:14:10;;;;;;;0.00;0.00;;;;;;;27.20;62.12;99749.28;5031950;28;20088;-72
2023/08/03 11:16:35;;;;;;;0.00;0.00;;;;;;;25.96;65.02;99754.50;5013996;28;20310;-71
2023/08/03 11:19:01;;;;;;;0.03;0.03;;;;;;;26.54;63.56;99752.88;5032683;28;20038;-71
2023/08/03 11:21:26;;;;;;;0.00;0.00;;;;;;;26.89;62.44;99762.00;5031767;28;20037;-71
2023/08/03 11:23:51;;;;;;;0.00;0.00;;;;;;;26.52;62.73;99746.91;5031731;28;20037;-73
2023/08/03 11:26:17;;;;;;;0.00;0.00;;;;;;;25.25;67.56;99767.44;5029014;28;20037;-72
2023/08/03 11:28:43;;;;;;;0.00;0.00;;;;;;;24.98;68.89;99774.47;5012704;28;20342;-71
2023/08/03 11:31:19;;;;;;;0.00;0.00;;;;;;;25.37;69.10;99783.09;5031803;28;20029;-72
2023/08/03 11:34:03;;;;;;;0.00;0.00;;;;;;;26.18;65.67;99788.16;5030999;28;20049;-72